createdAt,value
2022-12-12T00:03:31.007Z,81.75
2022-12-12T00:08:33.170Z,82.53
2022-12-12T00:13:35.794Z,82.45
2022-12-12T00:18:38.159Z,81.91
2022-12-12T00:23:40.022Z,82.32
2022-12-12T00:28:41.591Z,82.41
2022-12-12T00:33:45.042Z,81.75
2022-12-12T00:38:47.168Z,81.97
2022-12-12T00:43:49.187Z,82.15
2022-12-12T00:48:55.274Z,83.04
2022-12-12T00:53:58.383Z,82.62
2022-12-12T00:59:01.556Z,83.28
2022-12-12T01:04:04.868Z,82.97
2022-12-12T01:09:06.443Z,81.87
2022-12-12T01:14:08.039Z,82.38
2022-12-12T01:19:10.033Z,82.89
2022-12-12T01:24:11.619Z,82.42
2022-12-12T01:29:13.222Z,82.84
2022-12-12T01:34:14.798Z,82.48
2022-12-12T01:39:16.400Z,81.98
2022-12-12T01:44:46.543Z,81.97
2022-12-12T01:49:51.527Z,83.01
2022-12-12T01:54:58.178Z,81.91
2022-12-12T02:00:01.632Z,81.41
2022-12-12T02:05:11.770Z,84.05
2022-12-12T02:10:13.535Z,83.35
2022-12-12T02:15:15.451Z,83.60
2022-12-12T02:20:26.244Z,84.38
2022-12-12T02:25:42.771Z,83.37
2022-12-12T02:31:15.556Z,83.80
2022-12-12T02:36:32.496Z,83.12
2022-12-12T02:41:47.954Z,81.79
2022-12-12T02:47:06.461Z,82.02
2022-12-12T02:52:09.908Z,81.84
2022-12-12T02:57:25.808Z,82.60
2022-12-12T03:03:16.810Z,81.36
2022-12-12T03:08:39.792Z,81.40
2022-12-12T03:13:58.685Z,80.96
2022-12-12T03:19:25.841Z,80.77
2022-12-12T03:24:39.601Z,80.52
2022-12-12T03:29:48.386Z,80.97
2022-12-12T03:35:04.307Z,81.61
2022-12-12T03:40:10.334Z,81.06
2022-12-12T03:45:12.329Z,82.43
2022-12-12T03:50:20.103Z,83.14
2022-12-12T03:55:32.490Z,82.32
2022-12-12T04:00:37.459Z,83.03
2022-12-12T04:06:03.633Z,82.42
2022-12-12T04:11:32.308Z,82.42
2022-12-12T04:16:39.921Z,81.94
2022-12-12T04:22:18.080Z,82.48
2022-12-12T04:27:25.788Z,82.65
2022-12-12T04:32:34.105Z,83.12
2022-12-12T04:37:50.246Z,81.85
2022-12-12T04:42:57.014Z,82.00
2022-12-12T04:48:01.010Z,83.02
2022-12-12T04:53:11.144Z,83.35
2022-12-12T04:58:17.466Z,84.33
2022-12-12T05:03:28.865Z,84.72
2022-12-12T05:08:33.546Z,84.39
2022-12-12T05:13:40.751Z,84.87
2022-12-12T05:18:42.306Z,85.72
2022-12-12T05:23:43.929Z,84.99
2022-12-12T05:28:45.491Z,84.39
2022-12-12T05:33:47.398Z,83.73
2022-12-12T05:38:49.021Z,84.37
2022-12-12T05:43:50.606Z,84.06
2022-12-12T05:48:52.239Z,84.34
2022-12-12T05:53:53.803Z,84.80
2022-12-12T05:58:55.329Z,84.45
2022-12-12T06:03:57.070Z,83.83
2022-12-12T06:08:58.717Z,84.94
2022-12-12T06:14:00.274Z,84.24
2022-12-12T06:19:02.217Z,84.17
2022-12-12T06:24:05.989Z,84.96
2022-12-12T06:29:07.834Z,85.10
2022-12-12T06:34:09.378Z,84.43
2022-12-12T06:39:11.103Z,83.92
2022-12-12T06:44:12.881Z,83.37
2022-12-12T06:49:14.532Z,83.74
2022-12-12T06:54:18.576Z,84.48
2022-12-12T06:59:20.139Z,84.35
2022-12-12T07:04:21.682Z,86.34
2022-12-12T07:09:23.255Z,84.90
2022-12-12T07:14:24.852Z,85.97
2022-12-12T07:19:26.474Z,85.40
2022-12-12T07:24:28.322Z,84.97
2022-12-12T07:29:29.948Z,85.39
2022-12-12T07:34:31.599Z,85.81
2022-12-12T07:39:34.062Z,85.49
2022-12-12T07:44:35.671Z,84.94
2022-12-12T07:49:37.621Z,85.07
2022-12-12T07:54:39.474Z,84.71
2022-12-12T07:59:41.109Z,84.53
2022-12-12T08:04:42.704Z,83.55
2022-12-12T08:09:44.322Z,83.89
2022-12-12T08:14:45.869Z,83.90
2022-12-12T08:19:47.487Z,83.88
2022-12-12T08:24:49.991Z,84.71
2022-12-12T08:29:54.816Z,84.18
2022-12-12T08:34:58.177Z,83.28
2022-12-12T08:39:59.733Z,85.96
2022-12-12T08:45:01.287Z,84.61
2022-12-12T08:50:03.452Z,85.22
2022-12-12T08:55:05.236Z,84.62
2022-12-12T09:00:07.300Z,84.99
2022-12-12T09:05:09.528Z,85.25
2022-12-12T09:10:11.466Z,85.28
2022-12-12T09:15:13.285Z,84.64
2022-12-12T09:20:15.669Z,85.24
2022-12-12T09:25:17.612Z,85.46
2022-12-12T09:30:19.341Z,85.65
2022-12-12T09:35:20.952Z,84.60
2022-12-12T09:40:32.431Z,84.60
2022-12-12T09:45:36.598Z,85.37
2022-12-12T09:50:46.647Z,85.88
2022-12-12T09:56:08.203Z,85.28
2022-12-12T10:01:25.766Z,84.56
2022-12-12T10:06:38.086Z,84.93
2022-12-12T10:11:51.272Z,85.57
2022-12-12T10:16:57.817Z,84.41
2022-12-12T10:22:12.232Z,84.32
2022-12-12T10:27:14.804Z,84.76
2022-12-12T10:32:31.346Z,84.18
2022-12-12T10:37:48.757Z,84.72
2022-12-12T10:43:18.033Z,84.03
2022-12-12T10:48:20.041Z,84.42
2022-12-12T10:53:23.175Z,82.68
2022-12-12T10:58:27.126Z,84.58
2022-12-12T11:03:33.316Z,83.71
2022-12-12T11:08:36.159Z,83.98
2022-12-12T11:13:46.903Z,82.81
2022-12-12T11:19:00.283Z,82.98
2022-12-12T11:24:08.662Z,82.91
2022-12-12T11:29:42.772Z,82.82
2022-12-12T11:34:49.298Z,81.60
2022-12-12T11:39:53.128Z,82.08
2022-12-12T11:45:09.981Z,81.66
2022-12-12T11:50:20.120Z,84.06
2022-12-12T11:55:36.282Z,81.78
2022-12-12T12:00:46.069Z,81.69
2022-12-12T12:06:07.010Z,81.75
2022-12-12T12:11:24.117Z,81.34
2022-12-12T12:16:55.285Z,81.51
2022-12-12T12:22:21.013Z,79.75
2022-12-12T12:27:47.587Z,79.67
2022-12-12T12:33:35.588Z,79.45
2022-12-12T12:38:45.859Z,79.46
2022-12-12T12:43:53.609Z,78.98
2022-12-12T12:49:04.335Z,80.02
2022-12-12T12:54:13.415Z,78.43
2022-12-12T12:59:22.944Z,76.91
2022-12-12T13:04:26.934Z,77.54
2022-12-12T13:09:40.018Z,77.53
2022-12-12T13:14:49.240Z,77.38
2022-12-12T13:19:56.342Z,77.60
2022-12-12T13:25:03.765Z,75.52
2022-12-12T13:30:19.754Z,76.77
2022-12-12T13:35:31.422Z,75.36
2022-12-12T13:40:41.487Z,75.60
2022-12-12T13:45:45.389Z,74.57
2022-12-12T13:50:46.973Z,74.46
2022-12-12T13:55:48.636Z,73.48
2022-12-12T14:01:28.881Z,74.96
2022-12-12T14:06:31.177Z,75.11
2022-12-12T14:11:36.877Z,75.29
2022-12-12T14:16:38.751Z,76.00
2022-12-12T14:21:46.850Z,75.82
2022-12-12T14:26:49.547Z,74.88
2022-12-12T14:32:15.077Z,75.26
2022-12-12T14:37:34.592Z,74.71
2022-12-12T14:43:19.385Z,74.68
2022-12-12T14:48:25.203Z,76.71
2022-12-12T14:53:32.370Z,74.75
2022-12-12T14:58:38.776Z,75.62
2022-12-12T15:03:47.398Z,74.21
2022-12-12T15:08:49.977Z,76.07
2022-12-12T15:13:56.552Z,75.30
2022-12-12T15:19:00.106Z,75.49
2022-12-12T15:24:01.794Z,75.58
2022-12-12T15:29:04.446Z,74.49
2022-12-12T15:34:31.952Z,76.26
2022-12-12T15:39:33.624Z,75.09
2022-12-12T15:44:36.581Z,75.79
2022-12-12T15:49:43.363Z,75.24
2022-12-12T15:54:51.146Z,74.24
2022-12-12T16:00:45.127Z,75.12
2022-12-12T16:05:59.424Z,75.34
2022-12-12T16:11:07.000Z,74.67
2022-12-12T16:16:47.264Z,74.68
2022-12-12T16:21:48.943Z,76.59
2022-12-12T16:26:51.355Z,75.05
2022-12-12T16:31:53.120Z,76.22
2022-12-12T16:36:54.748Z,75.71
2022-12-12T16:41:56.443Z,74.96
2022-12-12T16:46:58.003Z,76.13
2022-12-12T16:51:59.650Z,73.87
2022-12-12T16:57:01.391Z,74.11
2022-12-12T17:02:03.630Z,74.48
2022-12-12T17:07:08.067Z,74.37
2022-12-12T17:12:11.807Z,73.87
2022-12-12T17:17:13.396Z,75.35
2022-12-12T17:22:15.334Z,74.52
2022-12-12T17:27:16.873Z,74.33
2022-12-12T17:32:24.119Z,73.78
2022-12-12T17:37:26.338Z,73.49
2022-12-12T17:42:32.010Z,73.59
2022-12-12T17:47:33.860Z,74.05
2022-12-12T17:52:35.581Z,75.00
2022-12-12T17:57:37.209Z,73.96
2022-12-12T18:02:40.223Z,73.84
2022-12-12T18:07:41.786Z,74.17
2022-12-12T18:12:46.868Z,74.48
2022-12-12T18:17:51.451Z,73.46
2022-12-12T18:22:55.075Z,73.88
2022-12-12T18:27:56.680Z,73.41
2022-12-12T18:33:02.741Z,74.05
2022-12-12T18:38:04.796Z,74.91
2022-12-12T18:43:07.002Z,74.48
2022-12-12T18:48:08.547Z,75.10
2022-12-12T18:53:10.094Z,74.75
2022-12-12T18:58:12.174Z,75.62
2022-12-12T19:03:13.744Z,75.58
2022-12-12T19:08:15.337Z,74.18
2022-12-12T19:13:16.933Z,74.92
2022-12-12T19:18:18.950Z,75.29
2022-12-12T19:23:20.476Z,76.51
2022-12-12T19:28:22.023Z,75.65
2022-12-12T19:33:23.592Z,75.42
2022-12-12T19:38:25.240Z,75.75
2022-12-12T19:43:30.426Z,75.69
2022-12-12T19:48:32.218Z,74.52
2022-12-12T19:53:36.625Z,74.66
2022-12-12T19:58:38.856Z,75.23
2022-12-12T20:03:41.481Z,74.88
2022-12-12T20:08:43.205Z,73.54
2022-12-12T20:14:15.233Z,74.04
2022-12-12T20:19:17.774Z,74.52
2022-12-12T20:24:25.554Z,74.74
2022-12-12T20:29:27.437Z,75.32
2022-12-12T20:34:29.541Z,75.11
2022-12-12T20:39:31.766Z,73.92
2022-12-12T20:44:33.350Z,74.74
2022-12-12T20:49:34.913Z,75.46
2022-12-12T20:54:36.546Z,75.79
2022-12-12T20:59:38.314Z,75.06
2022-12-12T21:04:39.854Z,75.52
2022-12-12T21:09:41.401Z,75.06
2022-12-12T21:14:42.949Z,73.39
2022-12-12T21:19:44.809Z,72.98
2022-12-12T21:24:46.382Z,73.74
2022-12-12T21:29:47.992Z,73.08
2022-12-12T21:34:49.533Z,74.22
2022-12-12T21:39:53.226Z,73.52
2022-12-12T21:44:54.799Z,72.94
2022-12-12T21:49:56.427Z,73.69
2022-12-12T21:54:57.962Z,74.52
2022-12-12T21:59:59.512Z,74.13
2022-12-12T22:05:01.043Z,75.37
2022-12-12T22:10:11.465Z,74.45
2022-12-12T22:15:13.708Z,73.58
2022-12-12T22:20:15.539Z,74.69
2022-12-12T22:25:17.281Z,75.30
2022-12-12T22:30:18.858Z,74.05
2022-12-12T22:35:20.420Z,73.96
2022-12-12T22:40:21.963Z,73.73
2022-12-12T22:45:23.557Z,73.90
2022-12-12T22:50:25.152Z,74.44
2022-12-12T22:55:26.703Z,74.26
2022-12-12T23:00:28.892Z,75.48
2022-12-12T23:05:30.900Z,75.47
2022-12-12T23:10:32.513Z,75.65
2022-12-12T23:15:38.730Z,75.08
2022-12-12T23:20:40.264Z,76.71
2022-12-12T23:25:41.805Z,75.31
2022-12-12T23:30:43.402Z,76.95
2022-12-12T23:35:49.341Z,75.77
2022-12-12T23:40:50.895Z,75.41
2022-12-12T23:45:52.450Z,76.00
2022-12-12T23:50:53.998Z,75.97
2022-12-12T23:55:55.653Z,75.70
